San José Airport
MGSJ : now visible

Airfield :











YOU CAN JOIN US ON...

 
LOGIN :

Register | Disclaimer

   EN    FR    IT 

 









Legend :    VFR   Marginal VFR   IFR   Intensive IFR   Very Intensive IFR
Visi :
Ceiling :
>= 8 km
>= 3000ft
5 to 8 km
1000 to 3000 ft
1500m to 5 km
500 to 1000 ft
800 to 1500m
200 to 500 ft
< 800m
< 200 ft
Symbols :   Thunderstorms  Fog  Heavy snow  Heavy precipitations  Wind > 20 kt






- Airport Elevation : 29 ft


MGSJ - San José

CURRENT METAR :
  • 232200Z 10012KT 8000 VCSH FEW016 BKN030CB OVC200 31/24 Q1007 A2974 CB/PCPN SMC N CB S

EXPIRED METARs :
  • 232100Z 16010KT 9999 FEW018 FEW030CB 31/25 Q1007 A2974 FEW200 RETS CB NE
  • 232000Z 16010KT 9999 FEW020 FEW028CB 30/25 Q1008 A2977 CB NE/ENE

TAF TAF MGSJ
Valid from the 23 at 18:00 until the 24 at 18:00 UTC


2318/2418 16008KT 9999 SCT018 BKN080 TX32/2320Z TN23/2412Z
TEMPO 2318/2418 8000 VCTSRA FEW025CB
BECMG 2402/2404 00000KT CAVOK
BECMG 2415/2417 18010KT



MET'MAP, your aeronautical weather chart ! - Copyright ORBIFLY December 2007 - Disclaimer

ORBIFLY MET'MAP TEAM :

Programming & Development : Alexandra Zaïnal
Concept & Development : Baudouin d'Aumeries
Co-Development & Prog : Marc-Olivier Méhu
Technical & hardware support : Manuel Goepfert

Contact : metmap@orbifly.com




SOURCES & CREDITS :

   NOAA       Earth
Advisory